Arpin, Wisconsin
Current Conditions -  °F | °C
As of 1:54 PM on Friday 21 Nov 2014 (Local Time) from KMFI Reporting Station
Broken Clouds Broken Clouds  
Wind Chill: 14°   Ceiling: 12000
Heat Index: 26°   Visibility: 10mi
Dew Point:   Wind: 14mph
Humidity: 41%   Direction: 180°S
Pressure: 30.16"   Gusts: NA
Location:  44.54°N, 90.04°W
Report Text: KMFI 211954Z AUTO 18012KT 10SM BKN120 M03/M15 A3016 RMK AO2 SLP242 T10331150
Loading
Personal Weather Stations






























Interactive Weather Map New forecast layout! Learn more

10-Day Weather Forecast

Advertisements
Track Severe Weather on mobile